PWSweather.com
Personal Weather Stations
Station Observations
ISYDDANM23
Felsted, AabenraaDK 6200

FelstedAabenraaDK 6200

Lat: 54.977066, Lon: 9.507192

Elevation: 135

Station Type: Davis Vantage Pro 2 Plus 24H

http://www.valkaer.dk

Latest ConditionsUpdated 11:15:00 PM GMT+01:01 Friday, Oct 18, 2019
Currently Today's Max Today's Min Today's Average
Temperature 51.8°F11.0°C 58.7°F14.8°C 50.3°F10.2°C 53.6°F12.0°C
Dew Point 47.7°F8.7°C 54.8°F12.7°C 47.7°F8.7°C 50.8°F10.4°C
Winds 11.5 mph SW18.5 kmh SW 16.1 mph -25.9 kmh - - 5.9 mph 9.5 kmh
Wind Gusts 15.0 mph24.1 kmh 24.2 mph38.9 kmh - -
Humidity 86% 94% 85% 90%
Pressure 29.59 in1002.0 mb 29.80 in1009.1 mb 29.50 in999.0 mb -
Hour Temp Dew Point Humidity Winds Wind Gusts Pressure Precip Precip Rate Daily Precip Total
11:15 PM 51.8°F11.0°C 47.7°F8.7°C 86% 11.5 mph SW18.5 kmh SW 15.0 mph24.1 kmh 29.59 in1002.0 mb - 0.00 in0.0 mm 3.75 in95.3 mm
11:10 PM 51.8°F11.0°C 48.1°F8.9°C 87% 12.7 mph SW20.4 kmh SW 20.7 mph33.3 kmh 29.59 in1002.0 mb - 0.02 in0.5 mm 3.75 in95.3 mm
11:00 PM 51.7°F10.9°C 48.2°F9.0°C 88% 10.4 mph SSW16.7 kmh SSW 15.0 mph24.1 kmh 29.59 in1002.0 mb - 0.02 in0.5 mm 3.73 in94.7 mm
10:55 PM 51.7°F10.9°C 48.3°F9.1°C 88% 10.4 mph SSW16.7 kmh SSW 21.9 mph35.2 kmh 29.59 in1002.0 mb - 0.03 in0.8 mm 0.32 in8.1 mm
10:50 PM 51.7°F10.9°C 48.3°F9.1°C 88% 12.7 mph SW20.4 kmh SW 17.3 mph27.8 kmh 29.59 in1002.0 mb - 0.03 in0.8 mm 0.32 in8.1 mm
10:45 PM 51.8°F11.0°C 48.4°F9.1°C 88% 12.7 mph SW20.4 kmh SW 18.4 mph29.6 kmh 29.59 in1002.0 mb - 0.03 in0.8 mm 0.32 in8.1 mm
10:40 PM 51.8°F11.0°C 48.4°F9.1°C 88% 11.5 mph SW18.5 kmh SW 13.8 mph22.2 kmh 29.59 in1002.0 mb - 0.03 in0.8 mm 0.32 in8.1 mm
10:35 PM 51.8°F11.0°C 48.6°F9.2°C 89% 11.5 mph SSW18.5 kmh SSW 19.6 mph31.5 kmh 29.59 in1002.0 mb - 0.03 in0.8 mm 0.32 in8.1 mm
10:30 PM 51.7°F10.9°C 48.6°F9.2°C 89% 11.5 mph SW18.5 kmh SW 18.4 mph29.6 kmh 29.58 in1001.7 mb - 0.03 in0.8 mm 0.32 in8.1 mm
10:25 PM 51.7°F10.9°C 48.8°F9.3°C 90% 11.5 mph SW18.5 kmh SW 17.3 mph27.8 kmh 29.59 in1002.0 mb - 0.04 in1.0 mm 0.32 in8.1 mm
10:20 PM 51.7°F10.9°C 48.8°F9.3°C 90% 6.9 mph SW11.1 kmh SW 17.3 mph27.8 kmh 29.59 in1002.0 mb - 0.05 in1.3 mm 0.32 in8.1 mm
10:15 PM 51.6°F10.9°C 48.8°F9.3°C 90% 11.5 mph SSW18.5 kmh SSW 15.0 mph24.1 kmh 29.58 in1001.7 mb - 0.06 in1.5 mm 0.32 in8.1 mm
10:10 PM 51.6°F10.9°C 48.8°F9.3°C 90% 10.4 mph SSW16.7 kmh SSW 17.3 mph27.8 kmh 29.59 in1002.0 mb - 0.05 in1.3 mm 0.32 in8.1 mm
10:00 PM 51.8°F11.0°C 49.0°F9.4°C 90% 10.4 mph SW16.7 kmh SW 15.0 mph24.1 kmh 29.59 in1002.0 mb - 0.03 in0.8 mm 0.30 in7.6 mm
09:55 PM 51.7°F10.9°C 48.9°F9.4°C 90% 13.8 mph SW22.2 kmh SW 20.7 mph33.3 kmh 29.59 in1002.0 mb - 0.03 in0.8 mm 0.30 in7.6 mm
09:50 PM 51.7°F10.9°C 48.8°F9.3°C 90% 8.1 mph SW13.0 kmh SW 11.5 mph18.5 kmh 29.59 in1002.0 mb - 0.03 in0.8 mm 0.29 in7.4 mm
09:45 PM 51.5°F10.8°C 48.6°F9.2°C 90% 10.4 mph SW16.7 kmh SW 11.5 mph18.5 kmh 29.59 in1002.0 mb - 0.03 in0.8 mm 0.29 in7.4 mm
09:40 PM 51.3°F10.7°C 48.2°F9.0°C 89% 9.2 mph SW14.8 kmh SW 11.5 mph18.5 kmh 29.59 in1002.0 mb - 0.03 in0.8 mm 0.29 in7.4 mm
09:35 PM 51.3°F10.7°C 48.2°F9.0°C 89% 8.1 mph SW13.0 kmh SW 11.5 mph18.5 kmh 29.58 in1001.7 mb - 0.03 in0.8 mm 0.29 in7.4 mm
09:30 PM 51.3°F10.7°C 47.9°F8.8°C 88% 9.2 mph SW14.8 kmh SW 12.7 mph20.4 kmh 29.58 in1001.7 mb - 0.03 in0.8 mm 0.29 in7.4 mm
09:25 PM 51.6°F10.9°C 48.2°F9.0°C 88% 9.2 mph SW14.8 kmh SW 18.4 mph29.6 kmh 29.58 in1001.7 mb - 0.02 in0.5 mm 0.28 in7.1 mm
09:20 PM 52.0°F11.1°C 48.3°F9.1°C 87% 12.7 mph SW20.4 kmh SW 13.8 mph22.2 kmh 29.58 in1001.7 mb - 0.02 in0.5 mm 0.28 in7.1 mm
09:15 PM 52.3°F11.3°C 48.5°F9.2°C 87% 11.5 mph SW18.5 kmh SW 18.4 mph29.6 kmh 29.58 in1001.7 mb - 0.01 in0.3 mm 0.27 in6.9 mm
09:10 PM 52.6°F11.4°C 49.1°F9.5°C 88% 15.0 mph SW24.1 kmh SW 19.6 mph31.5 kmh 29.59 in1002.0 mb - 0.01 in0.3 mm 0.27 in6.9 mm
09:00 PM 52.7°F11.5°C 49.2°F9.6°C 88% 16.1 mph SW25.9 kmh SW 17.3 mph27.8 kmh 29.58 in1001.7 mb - 0.01 in0.3 mm 0.27 in6.9 mm
08:55 PM 52.7°F11.5°C 49.3°F9.6°C 88% 15.0 mph SW24.1 kmh SW 20.7 mph33.3 kmh 29.57 in1001.4 mb - 0.01 in0.3 mm 0.27 in6.9 mm
08:50 PM 52.7°F11.5°C 49.3°F9.6°C 88% 12.7 mph SW20.4 kmh SW 24.2 mph38.9 kmh 29.57 in1001.4 mb - 0.01 in0.3 mm 0.27 in6.9 mm
08:45 PM 52.8°F11.6°C 49.4°F9.7°C 88% 12.7 mph SW20.4 kmh SW 13.8 mph22.2 kmh 29.57 in1001.4 mb - 0.00 in0.0 mm 0.26 in6.6 mm
08:40 PM 52.9°F11.6°C 49.1°F9.5°C 87% 12.7 mph SW20.4 kmh SW 17.3 mph27.8 kmh 29.57 in1001.4 mb - 0.00 in0.0 mm 0.26 in6.6 mm
08:35 PM 53.0°F11.7°C 49.2°F9.6°C 87% 10.4 mph SW16.7 kmh SW 19.6 mph31.5 kmh 29.56 in1001.0 mb - 0.00 in0.0 mm 0.26 in6.6 mm
08:30 PM 52.9°F11.6°C 49.1°F9.5°C 87% 11.5 mph SW18.5 kmh SW 15.0 mph24.1 kmh 29.56 in1001.0 mb - 0.00 in0.0 mm 0.26 in6.6 mm
08:25 PM 52.9°F11.6°C 49.1°F9.5°C 87% 11.5 mph SW18.5 kmh SW 13.8 mph22.2 kmh 29.56 in1001.0 mb - 0.00 in0.0 mm 0.26 in6.6 mm
08:20 PM 52.8°F11.6°C 49.0°F9.4°C 87% 11.5 mph SW18.5 kmh SW 17.3 mph27.8 kmh 29.56 in1001.0 mb - 0.00 in0.0 mm 0.26 in6.6 mm
08:15 PM 52.7°F11.5°C 48.9°F9.4°C 87% 10.4 mph SSW16.7 kmh SSW 16.1 mph25.9 kmh 29.56 in1001.0 mb - 0.00 in0.0 mm 0.26 in6.6 mm
08:10 PM 52.7°F11.5°C 48.9°F9.4°C 87% 10.4 mph SW16.7 kmh SW 13.8 mph22.2 kmh 29.55 in1000.7 mb - 0.00 in0.0 mm 0.26 in6.6 mm
08:00 PM 52.7°F11.5°C 49.0°F9.4°C 87% 10.4 mph SSW16.7 kmh SSW 11.5 mph18.5 kmh 29.55 in1000.7 mb - 0.00 in0.0 mm 0.26 in6.6 mm
07:55 PM 52.7°F11.5°C 48.6°F9.2°C 86% 11.5 mph SSW18.5 kmh SSW 15.0 mph24.1 kmh 29.55 in1000.7 mb - 0.00 in0.0 mm 0.26 in6.6 mm
07:50 PM 52.7°F11.5°C 48.9°F9.4°C 87% 10.4 mph SW16.7 kmh SW 15.0 mph24.1 kmh 29.55 in1000.7 mb - 0.00 in0.0 mm 0.26 in6.6 mm
07:45 PM 52.6°F11.4°C 48.8°F9.3°C 87% 9.2 mph SW14.8 kmh SW 13.8 mph22.2 kmh 29.55 in1000.7 mb - 0.00 in0.0 mm 0.26 in6.6 mm
07:40 PM 52.7°F11.5°C 48.9°F9.4°C 87% 11.5 mph SW18.5 kmh SW 13.8 mph22.2 kmh 29.55 in1000.7 mb - 0.00 in0.0 mm 0.26 in6.6 mm
07:35 PM 52.8°F11.6°C 49.0°F9.4°C 87% 13.8 mph SW22.2 kmh SW 19.6 mph31.5 kmh 29.55 in1000.7 mb - 0.00 in0.0 mm 0.26 in6.6 mm
07:30 PM 53.0°F11.7°C 49.2°F9.6°C 87% 9.2 mph SSW14.8 kmh SSW 12.7 mph20.4 kmh 29.55 in1000.7 mb - 0.00 in0.0 mm 0.26 in6.6 mm
07:25 PM 53.2°F11.8°C 49.1°F9.5°C 86% 10.4 mph SW16.7 kmh SW 12.7 mph20.4 kmh 29.55 in1000.7 mb - 0.00 in0.0 mm 0.26 in6.6 mm
07:20 PM 53.2°F11.8°C 49.1°F9.5°C 86% 9.2 mph SSW14.8 kmh SSW 18.4 mph29.6 kmh 29.55 in1000.7 mb - 0.00 in0.0 mm 0.26 in6.6 mm
07:15 PM 53.1°F11.7°C 49.0°F9.4°C 86% 12.7 mph SW20.4 kmh SW 19.6 mph31.5 kmh 29.55 in1000.7 mb - 0.00 in0.0 mm 0.26 in6.6 mm
07:10 PM 53.0°F11.7°C 49.2°F9.6°C 87% 9.2 mph SW14.8 kmh SW 11.5 mph18.5 kmh 29.55 in1000.7 mb - 0.00 in0.0 mm 0.26 in6.6 mm
07:00 PM 52.9°F11.6°C 49.4°F9.7°C 88% 12.7 mph SSW20.4 kmh SSW 18.4 mph29.6 kmh 29.54 in1000.3 mb - 0.00 in0.0 mm 0.26 in6.6 mm
06:55 PM 52.7°F11.5°C 49.3°F9.6°C 88% 9.2 mph SSW14.8 kmh SSW 13.8 mph22.2 kmh 29.54 in1000.3 mb - 0.00 in0.0 mm 0.26 in6.6 mm
06:50 PM 52.7°F11.5°C 49.5°F9.7°C 89% 9.2 mph SW14.8 kmh SW 13.8 mph22.2 kmh 29.54 in1000.3 mb - 0.00 in0.0 mm 0.26 in6.6 mm
06:45 PM 52.6°F11.4°C 49.4°F9.7°C 89% 9.2 mph SSW14.8 kmh SSW 16.1 mph25.9 kmh 29.54 in1000.3 mb - 0.00 in0.0 mm 0.26 in6.6 mm
06:40 PM 52.4°F11.3°C 49.3°F9.6°C 89% 11.5 mph SW18.5 kmh SW 16.1 mph25.9 kmh 29.54 in1000.3 mb - 0.00 in0.0 mm 0.26 in6.6 mm
06:35 PM 52.3°F11.3°C 49.2°F9.6°C 89% 9.2 mph SW14.8 kmh SW 11.5 mph18.5 kmh 29.54 in1000.3 mb - 0.00 in0.0 mm 0.26 in6.6 mm
06:30 PM 52.2°F11.2°C 49.4°F9.7°C 90% 10.4 mph SW16.7 kmh SW 15.0 mph24.1 kmh 29.54 in1000.3 mb - 0.00 in0.0 mm 0.26 in6.6 mm
06:25 PM 52.1°F11.2°C 49.2°F9.6°C 90% 12.7 mph S20.4 kmh S 19.6 mph31.5 kmh 29.54 in1000.3 mb - 0.00 in0.0 mm 0.26 in6.6 mm
06:20 PM 51.9°F11.1°C 49.3°F9.6°C 91% 9.2 mph SSW14.8 kmh SSW 13.8 mph22.2 kmh 29.54 in1000.3 mb - 0.00 in0.0 mm 0.26 in6.6 mm
06:15 PM 51.7°F10.9°C 49.2°F9.6°C 91% 9.2 mph SSW14.8 kmh SSW 11.5 mph18.5 kmh 29.54 in1000.3 mb - 0.00 in0.0 mm 0.26 in6.6 mm
06:10 PM 51.6°F10.9°C 49.1°F9.5°C 91% 9.2 mph SSW14.8 kmh SSW 11.5 mph18.5 kmh 29.54 in1000.3 mb - 0.00 in0.0 mm 0.26 in6.6 mm
06:00 PM 51.4°F10.8°C 48.9°F9.4°C 91% 9.2 mph S14.8 kmh S 11.5 mph18.5 kmh 29.54 in1000.3 mb - 0.00 in0.0 mm 0.26 in6.6 mm
05:55 PM 51.4°F10.8°C 48.8°F9.3°C 91% 9.2 mph SSW14.8 kmh SSW 11.5 mph18.5 kmh 29.53 in1000.0 mb - 0.01 in0.3 mm 0.26 in6.6 mm
05:50 PM 51.3°F10.7°C 48.8°F9.3°C 91% 10.4 mph SSW16.7 kmh SSW 18.4 mph29.6 kmh 29.53 in1000.0 mb - 0.01 in0.3 mm 0.26 in6.6 mm
05:45 PM 51.3°F10.7°C 48.8°F9.3°C 91% 10.4 mph SSW16.7 kmh SSW 12.7 mph20.4 kmh 29.53 in1000.0 mb - 0.01 in0.3 mm 0.26 in6.6 mm
05:40 PM 51.4°F10.8°C 48.5°F9.2°C 90% 8.1 mph SSW13.0 kmh SSW 10.4 mph16.7 kmh 29.53 in1000.0 mb - 0.01 in0.3 mm 0.26 in6.6 mm
05:35 PM 51.3°F10.7°C 48.5°F9.2°C 90% 10.4 mph S16.7 kmh S 13.8 mph22.2 kmh 29.53 in1000.0 mb - 0.02 in0.5 mm 0.26 in6.6 mm
05:30 PM 51.3°F10.7°C 48.5°F9.2°C 90% 6.9 mph S11.1 kmh S 11.5 mph18.5 kmh 29.53 in1000.0 mb - 0.07 in1.8 mm 0.26 in6.6 mm
05:25 PM 51.3°F10.7°C 48.5°F9.2°C 90% 6.9 mph S11.1 kmh S 11.5 mph18.5 kmh 29.52 in999.7 mb - 0.10 in2.5 mm 0.26 in6.6 mm
05:20 PM 51.4°F10.8°C 48.3°F9.1°C 89% 6.9 mph SSW11.1 kmh SSW 11.5 mph18.5 kmh 29.52 in999.7 mb - 0.13 in3.3 mm 0.26 in6.6 mm
05:15 PM 51.6°F10.9°C 48.5°F9.2°C 89% 9.2 mph SSW14.8 kmh SSW 11.5 mph18.5 kmh 29.53 in1000.0 mb - 0.16 in4.1 mm 0.26 in6.6 mm
05:10 PM 51.7°F10.9°C 48.6°F9.2°C 89% 8.1 mph SW13.0 kmh SW 11.5 mph18.5 kmh 29.53 in1000.0 mb - 0.17 in4.3 mm 0.26 in6.6 mm
05:00 PM 51.7°F10.9°C 48.6°F9.2°C 89% 6.9 mph SW11.1 kmh SW 11.5 mph18.5 kmh 29.52 in999.7 mb - 0.20 in5.1 mm 0.26 in6.6 mm
04:55 PM 51.7°F10.9°C 48.5°F9.2°C 89% 5.8 mph SW9.3 kmh SW 6.9 mph11.1 kmh 29.51 in999.3 mb - 0.20 in5.1 mm 0.25 in6.4 mm
04:50 PM 51.8°F11.0°C 48.4°F9.1°C 88% 5.8 mph SW9.3 kmh SW 5.8 mph9.3 kmh 29.52 in999.7 mb - 0.20 in5.1 mm 0.25 in6.4 mm
04:45 PM 52.0°F11.1°C 48.6°F9.2°C 88% 8.1 mph SW13.0 kmh SW 11.5 mph18.5 kmh 29.52 in999.7 mb - 0.20 in5.1 mm 0.25 in6.4 mm
04:40 PM 52.6°F11.4°C 48.8°F9.3°C 87% 10.4 mph SW16.7 kmh SW 12.7 mph20.4 kmh 29.52 in999.7 mb - 0.20 in5.1 mm 0.25 in6.4 mm
04:35 PM 54.1°F12.3°C 50.1°F10.1°C 86% 10.4 mph SW16.7 kmh SW 13.8 mph22.2 kmh 29.54 in1000.3 mb - 0.19 in4.8 mm 0.24 in6.1 mm
04:30 PM 55.8°F13.2°C 52.6°F11.4°C 89% 12.7 mph SSW20.4 kmh SSW 17.3 mph27.8 kmh 29.53 in1000.0 mb - 0.13 in3.3 mm 0.19 in4.8 mm
04:25 PM 56.4°F13.6°C 52.9°F11.6°C 88% 10.4 mph SSE16.7 kmh SSE 15.0 mph24.1 kmh 29.52 in999.7 mb - 0.11 in2.8 mm 0.17 in4.3 mm
04:20 PM 56.8°F13.8°C 53.6°F12.0°C 89% 5.8 mph SE9.3 kmh SE 11.5 mph18.5 kmh 29.51 in999.3 mb - 0.07 in1.8 mm 0.13 in3.3 mm
04:15 PM 57.0°F13.9°C 53.8°F12.1°C 89% 9.2 mph SE14.8 kmh SE 11.5 mph18.5 kmh 29.51 in999.3 mb - 0.06 in1.5 mm 0.11 in2.8 mm
04:10 PM 57.2°F14.0°C 53.7°F12.1°C 88% 5.8 mph SE9.3 kmh SE 9.2 mph14.8 kmh 29.50 in999.0 mb - 0.04 in1.0 mm 0.09 in2.3 mm
04:00 PM 57.4°F14.1°C 53.9°F12.2°C 88% 3.5 mph SE5.6 kmh SE 3.5 mph5.6 kmh 29.51 in999.3 mb - 0.01 in0.3 mm 0.06 in1.5 mm
03:55 PM 57.6°F14.2°C 53.8°F12.1°C 87% 3.5 mph SE5.6 kmh SE 3.5 mph5.6 kmh 29.51 in999.3 mb - 0.01 in0.3 mm 0.06 in1.5 mm
03:50 PM 57.7°F14.3°C 53.9°F12.2°C 87% 2.3 mph SE3.7 kmh SE 3.5 mph5.6 kmh 29.51 in999.3 mb - 0.01 in0.3 mm 0.06 in1.5 mm
03:45 PM 57.7°F14.3°C 53.9°F12.2°C 87% 3.5 mph SE5.6 kmh SE 6.9 mph11.1 kmh 29.52 in999.7 mb - 0.01 in0.3 mm 0.06 in1.5 mm
03:40 PM 57.6°F14.2°C 54.1°F12.3°C 88% 5.8 mph SE9.3 kmh SE 9.2 mph14.8 kmh 29.52 in999.7 mb - 0.01 in0.3 mm 0.06 in1.5 mm
03:35 PM 57.6°F14.2°C 54.1°F12.3°C 88% 3.5 mph SE5.6 kmh SE 4.6 mph7.4 kmh 29.53 in1000.0 mb - 0.01 in0.3 mm 0.06 in1.5 mm
03:30 PM 57.7°F14.3°C 54.1°F12.3°C 88% 3.5 mph SE5.6 kmh SE 5.8 mph9.3 kmh 29.53 in1000.0 mb - 0.01 in0.3 mm 0.06 in1.5 mm
03:25 PM 57.7°F14.3°C 54.2°F12.3°C 88% 1.2 mph SE1.9 kmh SE 3.5 mph5.6 kmh 29.52 in999.7 mb - 0.01 in0.3 mm 0.06 in1.5 mm
03:20 PM 57.8°F14.3°C 53.9°F12.2°C 87% 1.2 mph SE1.9 kmh SE 3.5 mph5.6 kmh 29.53 in1000.0 mb - 0.01 in0.3 mm 0.06 in1.5 mm
03:15 PM 57.9°F14.4°C 54.1°F12.3°C 87% 4.6 mph SSE7.4 kmh SSE 9.2 mph14.8 kmh 29.54 in1000.3 mb - 0.01 in0.3 mm 0.06 in1.5 mm
03:10 PM 57.9°F14.4°C 54.1°F12.3°C 87% 4.6 mph SSE7.4 kmh SSE 6.9 mph11.1 kmh 29.54 in1000.3 mb - 0.01 in0.3 mm 0.06 in1.5 mm
03:00 PM 58.3°F14.6°C 54.1°F12.3°C 86% 6.9 mph SE11.1 kmh SE 9.2 mph14.8 kmh 29.54 in1000.3 mb - 0.01 in0.3 mm 0.06 in1.5 mm
02:55 PM 58.5°F14.7°C 54.0°F12.2°C 85% 3.5 mph SSE5.6 kmh SSE 4.6 mph7.4 kmh 29.55 in1000.7 mb - 0.01 in0.3 mm 0.06 in1.5 mm
02:50 PM 58.7°F14.8°C 54.2°F12.3°C 85% 3.5 mph SSE5.6 kmh SSE 4.6 mph7.4 kmh 29.55 in1000.7 mb - 0.00 in0.0 mm 0.05 in1.3 mm
02:45 PM 58.7°F14.8°C 54.5°F12.5°C 86% 3.5 mph SSE5.6 kmh SSE 6.9 mph11.1 kmh 29.56 in1001.0 mb - 0.00 in0.0 mm 0.05 in1.3 mm
02:40 PM 58.7°F14.8°C 54.5°F12.5°C 86% 4.6 mph SSE7.4 kmh SSE 9.2 mph14.8 kmh 29.56 in1001.0 mb - 0.00 in0.0 mm 0.05 in1.3 mm
02:35 PM 58.7°F14.8°C 54.5°F12.5°C 86% 4.6 mph SSE7.4 kmh SSE 4.6 mph7.4 kmh 29.56 in1001.0 mb - 0.00 in0.0 mm 0.05 in1.3 mm
02:30 PM 58.7°F14.8°C 54.5°F12.5°C 86% 3.5 mph SSE5.6 kmh SSE 10.4 mph16.7 kmh 29.56 in1001.0 mb - 0.00 in0.0 mm 0.05 in1.3 mm
02:25 PM 58.5°F14.7°C 54.3°F12.4°C 86% 5.8 mph S9.3 kmh S 9.2 mph14.8 kmh 29.56 in1001.0 mb - 0.00 in0.0 mm 0.05 in1.3 mm
02:20 PM 58.4°F14.7°C 54.2°F12.3°C 86% 5.8 mph S9.3 kmh S 8.1 mph13.0 kmh 29.57 in1001.4 mb - 0.00 in0.0 mm 0.05 in1.3 mm
02:15 PM 58.3°F14.6°C 54.1°F12.3°C 86% 6.9 mph SSE11.1 kmh SSE 9.2 mph14.8 kmh 29.57 in1001.4 mb - 0.00 in0.0 mm 0.05 in1.3 mm
02:10 PM 58.3°F14.6°C 54.1°F12.3°C 86% 4.6 mph SSE7.4 kmh SSE 10.4 mph16.7 kmh 29.57 in1001.4 mb - 0.00 in0.0 mm 0.05 in1.3 mm
02:00 PM 58.4°F14.7°C 54.2°F12.3°C 86% 8.1 mph SSE13.0 kmh SSE 11.5 mph18.5 kmh 29.58 in1001.7 mb - 0.00 in0.0 mm 0.05 in1.3 mm
01:55 PM 58.3°F14.6°C 54.4°F12.4°C 87% 5.8 mph S9.3 kmh S 11.5 mph18.5 kmh 29.58 in1001.7 mb - 0.00 in0.0 mm 0.05 in1.3 mm
01:50 PM 58.3°F14.6°C 54.4°F12.4°C 87% 5.8 mph SSE9.3 kmh SSE 10.4 mph16.7 kmh 29.58 in1001.7 mb - 0.00 in0.0 mm 0.05 in1.3 mm
01:45 PM 58.3°F14.6°C 54.4°F12.4°C 87% 8.1 mph SSE13.0 kmh SSE 11.5 mph18.5 kmh 29.58 in1001.7 mb - 0.01 in0.3 mm 0.05 in1.3 mm
01:40 PM 58.0°F14.4°C 54.1°F12.3°C 87% 6.9 mph S11.1 kmh S 9.2 mph14.8 kmh 29.58 in1001.7 mb - 0.01 in0.3 mm 0.05 in1.3 mm
01:35 PM 58.0°F14.4°C 54.4°F12.4°C 88% 8.1 mph S13.0 kmh S 11.5 mph18.5 kmh 29.58 in1001.7 mb - 0.01 in0.3 mm 0.05 in1.3 mm
01:30 PM 58.0°F14.4°C 54.5°F12.5°C 88% 4.6 mph SSE7.4 kmh SSE 6.9 mph11.1 kmh 29.58 in1001.7 mb - 0.01 in0.3 mm 0.05 in1.3 mm
01:25 PM 57.9°F14.4°C 54.3°F12.4°C 88% 4.6 mph SSE7.4 kmh SSE 6.9 mph11.1 kmh 29.58 in1001.7 mb - 0.01 in0.3 mm 0.05 in1.3 mm
01:20 PM 57.7°F14.3°C 54.5°F12.5°C 89% 6.9 mph SSE11.1 kmh SSE 8.1 mph13.0 kmh 29.58 in1001.7 mb - 0.01 in0.3 mm 0.05 in1.3 mm
01:15 PM 57.5°F14.2°C 54.3°F12.4°C 89% 5.8 mph SSE9.3 kmh SSE 11.5 mph18.5 kmh 29.59 in1002.0 mb - 0.01 in0.3 mm 0.05 in1.3 mm
01:10 PM 57.5°F14.2°C 54.3°F12.4°C 89% 8.1 mph S13.0 kmh S 9.2 mph14.8 kmh 29.59 in1002.0 mb - 0.01 in0.3 mm 0.05 in1.3 mm
01:00 PM 57.5°F14.2°C 54.3°F12.4°C 89% 8.1 mph SSE13.0 kmh SSE 13.8 mph22.2 kmh 29.60 in1002.4 mb - 0.01 in0.3 mm 0.05 in1.3 mm
12:55 PM 57.3°F14.1°C 54.1°F12.3°C 89% 6.9 mph SSE11.1 kmh SSE 10.4 mph16.7 kmh 29.60 in1002.4 mb - 0.01 in0.3 mm 0.05 in1.3 mm
12:50 PM 57.2°F14.0°C 54.0°F12.2°C 89% 6.9 mph S11.1 kmh S 9.2 mph14.8 kmh 29.60 in1002.4 mb - 0.01 in0.3 mm 0.05 in1.3 mm
12:45 PM 57.4°F14.1°C 54.2°F12.3°C 89% 5.8 mph S9.3 kmh S 12.7 mph20.4 kmh 29.61 in1002.7 mb - 0.00 in0.0 mm 0.04 in1.0 mm
12:40 PM 57.5°F14.2°C 54.3°F12.4°C 89% 4.6 mph SSE7.4 kmh SSE 9.2 mph14.8 kmh 29.61 in1002.7 mb - 0.00 in0.0 mm 0.04 in1.0 mm
12:35 PM 57.6°F14.2°C 54.4°F12.4°C 89% 6.9 mph S11.1 kmh S 9.2 mph14.8 kmh 29.61 in1002.7 mb - 0.00 in0.0 mm 0.04 in1.0 mm
12:30 PM 57.6°F14.2°C 54.4°F12.4°C 89% 5.8 mph SSE9.3 kmh SSE 10.4 mph16.7 kmh 29.61 in1002.7 mb - 0.00 in0.0 mm 0.04 in1.0 mm
12:25 PM 57.7°F14.3°C 54.8°F12.7°C 90% 8.1 mph S13.0 kmh S 13.8 mph22.2 kmh 29.62 in1003.0 mb - 0.00 in0.0 mm 0.04 in1.0 mm
12:20 PM 57.4°F14.1°C 54.5°F12.5°C 90% 8.1 mph S13.0 kmh S 12.7 mph20.4 kmh 29.62 in1003.0 mb - 0.01 in0.3 mm 0.04 in1.0 mm
12:15 PM 57.2°F14.0°C 54.3°F12.4°C 90% 5.8 mph SSE9.3 kmh SSE 9.2 mph14.8 kmh 29.62 in1003.0 mb - 0.01 in0.3 mm 0.04 in1.0 mm
12:10 PM 57.1°F13.9°C 54.2°F12.3°C 90% 8.1 mph SSE13.0 kmh SSE 10.4 mph16.7 kmh 29.62 in1003.0 mb - 0.01 in0.3 mm 0.04 in1.0 mm
12:00 PM 57.4°F14.1°C 54.8°F12.7°C 91% 9.2 mph SSE14.8 kmh SSE 12.7 mph20.4 kmh 29.63 in1003.4 mb - 0.01 in0.3 mm 0.04 in1.0 mm
11:55 AM 56.7°F13.7°C 54.1°F12.3°C 91% 8.1 mph S13.0 kmh S 12.7 mph20.4 kmh 29.63 in1003.4 mb - 0.01 in0.3 mm 0.04 in1.0 mm
11:50 AM 56.6°F13.7°C 54.0°F12.2°C 91% 5.8 mph S9.3 kmh S 8.1 mph13.0 kmh 29.64 in1003.7 mb - 0.01 in0.3 mm 0.04 in1.0 mm
11:45 AM 56.4°F13.6°C 53.8°F12.1°C 91% 6.9 mph SSE11.1 kmh SSE 9.2 mph14.8 kmh 29.64 in1003.7 mb - 0.01 in0.3 mm 0.04 in1.0 mm
11:40 AM 56.3°F13.5°C 53.7°F12.1°C 91% 6.9 mph S11.1 kmh S 9.2 mph14.8 kmh 29.64 in1003.7 mb - 0.01 in0.3 mm 0.04 in1.0 mm
11:35 AM 56.2°F13.4°C 53.6°F12.0°C 91% 5.8 mph SSE9.3 kmh SSE 12.7 mph20.4 kmh 29.64 in1003.7 mb - 0.01 in0.3 mm 0.04 in1.0 mm
11:30 AM 56.0°F13.3°C 53.4°F11.9°C 91% 8.1 mph S13.0 kmh S 9.2 mph14.8 kmh 29.65 in1004.1 mb - 0.01 in0.3 mm 0.04 in1.0 mm
11:25 AM 56.0°F13.3°C 53.4°F11.9°C 91% 5.8 mph S9.3 kmh S 9.2 mph14.8 kmh 29.65 in1004.1 mb - 0.01 in0.3 mm 0.04 in1.0 mm
11:20 AM 56.1°F13.4°C 53.2°F11.8°C 90% 5.8 mph SSE9.3 kmh SSE 10.4 mph16.7 kmh 29.65 in1004.1 mb - 0.00 in0.0 mm 0.03 in0.8 mm
11:15 AM 56.1°F13.4°C 53.2°F11.8°C 90% 5.8 mph S9.3 kmh S 12.7 mph20.4 kmh 29.65 in1004.1 mb - 0.00 in0.0 mm 0.03 in0.8 mm
11:10 AM 56.0°F13.3°C 53.1°F11.7°C 90% 4.6 mph S7.4 kmh S 5.8 mph9.3 kmh 29.65 in1004.1 mb - 0.00 in0.0 mm 0.03 in0.8 mm
11:00 AM 55.8°F13.2°C 52.9°F11.6°C 90% 8.1 mph SSE13.0 kmh SSE 12.7 mph20.4 kmh 29.65 in1004.1 mb - 0.00 in0.0 mm 0.03 in0.8 mm
10:55 AM 55.7°F13.2°C 52.8°F11.6°C 90% 5.8 mph SSE9.3 kmh SSE 10.4 mph16.7 kmh 29.66 in1004.4 mb - 0.00 in0.0 mm 0.03 in0.8 mm
10:50 AM 55.6°F13.1°C 52.7°F11.5°C 90% 5.8 mph S9.3 kmh S 11.5 mph18.5 kmh 29.66 in1004.4 mb - 0.00 in0.0 mm 0.03 in0.8 mm
10:45 AM 55.5°F13.1°C 52.6°F11.4°C 90% 4.6 mph SSE7.4 kmh SSE 9.2 mph14.8 kmh 29.66 in1004.4 mb - 0.00 in0.0 mm 0.03 in0.8 mm
10:40 AM 55.4°F13.0°C 52.5°F11.4°C 90% 5.8 mph S9.3 kmh S 9.2 mph14.8 kmh 29.66 in1004.4 mb - 0.00 in0.0 mm 0.03 in0.8 mm
10:35 AM 55.4°F13.0°C 52.5°F11.4°C 90% 3.5 mph S5.6 kmh S 5.8 mph9.3 kmh 29.66 in1004.4 mb - 0.00 in0.0 mm 0.03 in0.8 mm
10:30 AM 55.3°F12.9°C 52.4°F11.3°C 90% 5.8 mph S9.3 kmh S 8.1 mph13.0 kmh 29.67 in1004.7 mb - 0.00 in0.0 mm 0.03 in0.8 mm
10:25 AM 55.2°F12.9°C 52.3°F11.3°C 90% 4.6 mph SE7.4 kmh SE 8.1 mph13.0 kmh 29.67 in1004.7 mb - 0.00 in0.0 mm 0.03 in0.8 mm
10:20 AM 55.2°F12.9°C 52.3°F11.3°C 90% 4.6 mph SSE7.4 kmh SSE 4.6 mph7.4 kmh 29.67 in1004.7 mb - 0.00 in0.0 mm 0.03 in0.8 mm
10:15 AM 54.9°F12.7°C 52.0°F11.1°C 90% 4.6 mph S7.4 kmh S 6.9 mph11.1 kmh 29.67 in1004.7 mb - 0.00 in0.0 mm 0.03 in0.8 mm
10:10 AM 54.8°F12.7°C 51.9°F11.1°C 90% 4.6 mph S7.4 kmh S 9.2 mph14.8 kmh 29.67 in1004.7 mb - 0.00 in0.0 mm 0.03 in0.8 mm
10:00 AM 54.7°F12.6°C 52.1°F11.2°C 91% 5.8 mph S9.3 kmh S 8.1 mph13.0 kmh 29.68 in1005.1 mb - 0.00 in0.0 mm 0.03 in0.8 mm
09:55 AM 54.5°F12.5°C 51.6°F10.9°C 90% 5.8 mph S9.3 kmh S 8.1 mph13.0 kmh 29.68 in1005.1 mb - 0.00 in0.0 mm 0.03 in0.8 mm
09:50 AM 54.3°F12.4°C 51.7°F10.9°C 91% 4.6 mph S7.4 kmh S 8.1 mph13.0 kmh 29.68 in1005.1 mb - 0.00 in0.0 mm 0.03 in0.8 mm
09:45 AM 54.1°F12.3°C 51.5°F10.8°C 91% 4.6 mph SSE7.4 kmh SSE 9.2 mph14.8 kmh 29.68 in1005.1 mb - 0.00 in0.0 mm 0.03 in0.8 mm
09:40 AM 54.0°F12.2°C 51.4°F10.8°C 91% 4.6 mph S7.4 kmh S 5.8 mph9.3 kmh 29.68 in1005.1 mb - 0.00 in0.0 mm 0.03 in0.8 mm
09:35 AM 53.8°F12.1°C 51.2°F10.7°C 91% 3.5 mph S5.6 kmh S 5.8 mph9.3 kmh 29.69 in1005.4 mb - 0.00 in0.0 mm 0.03 in0.8 mm
09:30 AM 53.7°F12.1°C 51.1°F10.6°C 91% 4.6 mph S7.4 kmh S 8.1 mph13.0 kmh 29.69 in1005.4 mb - 0.00 in0.0 mm 0.03 in0.8 mm
09:25 AM 53.7°F12.1°C 51.1°F10.6°C 91% 5.8 mph S9.3 kmh S 6.9 mph11.1 kmh 29.69 in1005.4 mb - 0.00 in0.0 mm 0.03 in0.8 mm
09:20 AM 53.6°F12.0°C 51.0°F10.6°C 91% 5.8 mph S9.3 kmh S 6.9 mph11.1 kmh 29.69 in1005.4 mb - 0.00 in0.0 mm 0.03 in0.8 mm
09:15 AM 53.4°F11.9°C 50.8°F10.4°C 91% 5.8 mph SSE9.3 kmh SSE 9.2 mph14.8 kmh 29.69 in1005.4 mb - 0.00 in0.0 mm 0.03 in0.8 mm
09:10 AM 53.3°F11.8°C 50.7°F10.4°C 91% 5.8 mph S9.3 kmh S 6.9 mph11.1 kmh 29.69 in1005.4 mb - 0.00 in0.0 mm 0.03 in0.8 mm
09:00 AM 53.3°F11.8°C 50.7°F10.4°C 91% 4.6 mph S7.4 kmh S 6.9 mph11.1 kmh 29.69 in1005.4 mb - 0.00 in0.0 mm 0.03 in0.8 mm
08:55 AM 53.3°F11.8°C 50.7°F10.4°C 91% 4.6 mph S7.4 kmh S 8.1 mph13.0 kmh 29.69 in1005.4 mb - 0.00 in0.0 mm 0.03 in0.8 mm
08:50 AM 53.3°F11.8°C 50.7°F10.4°C 91% 4.6 mph S7.4 kmh S 6.9 mph11.1 kmh 29.69 in1005.4 mb - 0.00 in0.0 mm 0.03 in0.8 mm
08:45 AM 53.2°F11.8°C 50.9°F10.5°C 92% 3.5 mph S5.6 kmh S 4.6 mph7.4 kmh 29.69 in1005.4 mb - 0.00 in0.0 mm 0.03 in0.8 mm
08:40 AM 53.0°F11.7°C 50.7°F10.4°C 92% 3.5 mph S5.6 kmh S 5.8 mph9.3 kmh 29.69 in1005.4 mb - 0.00 in0.0 mm 0.03 in0.8 mm
08:35 AM 52.9°F11.6°C 50.6°F10.3°C 92% 3.5 mph SSW5.6 kmh SSW 4.6 mph7.4 kmh 29.69 in1005.4 mb - 0.00 in0.0 mm 0.03 in0.8 mm
08:30 AM 52.9°F11.6°C 50.6°F10.3°C 92% 3.5 mph S5.6 kmh S 4.6 mph7.4 kmh 29.70 in1005.8 mb - 0.00 in0.0 mm 0.03 in0.8 mm
08:25 AM 52.8°F11.6°C 50.5°F10.3°C 92% 5.8 mph S9.3 kmh S 8.1 mph13.0 kmh 29.70 in1005.8 mb - 0.00 in0.0 mm 0.03 in0.8 mm
08:20 AM 52.7°F11.5°C 50.4°F10.2°C 92% 5.8 mph S9.3 kmh S 9.2 mph14.8 kmh 29.70 in1005.8 mb - 0.00 in0.0 mm 0.03 in0.8 mm
08:15 AM 52.6°F11.4°C 50.3°F10.2°C 92% 3.5 mph S5.6 kmh S 6.9 mph11.1 kmh 29.70 in1005.8 mb - 0.00 in0.0 mm 0.03 in0.8 mm
08:10 AM 52.5°F11.4°C 50.2°F10.1°C 92% 2.3 mph S3.7 kmh S 3.5 mph5.6 kmh 29.70 in1005.8 mb - 0.00 in0.0 mm 0.03 in0.8 mm
08:00 AM 52.4°F11.3°C 50.1°F10.1°C 92% 3.5 mph S5.6 kmh S 5.8 mph9.3 kmh 29.70 in1005.8 mb - 0.00 in0.0 mm 0.03 in0.8 mm
07:55 AM 52.3°F11.3°C 50.0°F10.0°C 92% 2.3 mph S3.7 kmh S 3.5 mph5.6 kmh 29.70 in1005.8 mb - 0.00 in0.0 mm 0.03 in0.8 mm
07:50 AM 52.1°F11.2°C 49.9°F9.9°C 92% 5.8 mph SSW9.3 kmh SSW 9.2 mph14.8 kmh 29.70 in1005.8 mb - 0.00 in0.0 mm 0.03 in0.8 mm
07:45 AM 52.0°F11.1°C 49.8°F9.9°C 92% 4.6 mph S7.4 kmh S 5.8 mph9.3 kmh 29.71 in1006.1 mb - 0.00 in0.0 mm 0.03 in0.8 mm
07:40 AM 52.0°F11.1°C 49.7°F9.8°C 92% 3.5 mph S5.6 kmh S 4.6 mph7.4 kmh 29.70 in1005.8 mb - 0.00 in0.0 mm 0.03 in0.8 mm
07:35 AM 51.9°F11.1°C 49.6°F9.8°C 92% 3.5 mph S5.6 kmh S 3.5 mph5.6 kmh 29.70 in1005.8 mb - 0.00 in0.0 mm 0.03 in0.8 mm
07:30 AM 51.8°F11.0°C 49.6°F9.8°C 92% 3.5 mph SSW5.6 kmh SSW 3.5 mph5.6 kmh 29.70 in1005.8 mb - 0.00 in0.0 mm 0.03 in0.8 mm
07:25 AM 51.8°F11.0°C 49.5°F9.7°C 92% 2.3 mph S3.7 kmh S 2.3 mph3.7 kmh 29.70 in1005.8 mb - 0.00 in0.0 mm 0.03 in0.8 mm
07:20 AM 51.7°F10.9°C 49.5°F9.7°C 92% 1.2 mph S1.9 kmh S 2.3 mph3.7 kmh 29.70 in1005.8 mb - 0.00 in0.0 mm 0.03 in0.8 mm
07:15 AM 51.7°F10.9°C 49.5°F9.7°C 92% 1.2 mph S1.9 kmh S 2.3 mph3.7 kmh 29.70 in1005.8 mb - 0.00 in0.0 mm 0.03 in0.8 mm
07:10 AM 51.7°F10.9°C 49.5°F9.7°C 92% 2.3 mph S3.7 kmh S 4.6 mph7.4 kmh 29.70 in1005.8 mb - 0.00 in0.0 mm 0.03 in0.8 mm
07:00 AM 51.8°F11.0°C 49.5°F9.7°C 92% 4.6 mph SSW7.4 kmh SSW 5.8 mph9.3 kmh 29.70 in1005.8 mb - 0.00 in0.0 mm 0.03 in0.8 mm
06:55 AM 51.8°F11.0°C 49.5°F9.7°C 92% 5.8 mph SSW9.3 kmh SSW 8.1 mph13.0 kmh 29.70 in1005.8 mb - 0.00 in0.0 mm 0.03 in0.8 mm
06:50 AM 51.8°F11.0°C 49.5°F9.7°C 92% 2.3 mph S3.7 kmh S 3.5 mph5.6 kmh 29.70 in1005.8 mb - 0.00 in0.0 mm 0.03 in0.8 mm
06:45 AM 51.8°F11.0°C 49.5°F9.7°C 92% 3.5 mph S5.6 kmh S 3.5 mph5.6 kmh 29.70 in1005.8 mb - 0.00 in0.0 mm 0.03 in0.8 mm
06:40 AM 51.9°F11.1°C 49.9°F9.9°C 93% 3.5 mph S5.6 kmh S 5.8 mph9.3 kmh 29.70 in1005.8 mb - 0.00 in0.0 mm 0.03 in0.8 mm
06:35 AM 51.9°F11.1°C 50.0°F10.0°C 93% 3.5 mph S5.6 kmh S 4.6 mph7.4 kmh 29.70 in1005.8 mb - 0.00 in0.0 mm 0.03 in0.8 mm
06:30 AM 52.0°F11.1°C 50.0°F10.0°C 93% 2.3 mph S3.7 kmh S 4.6 mph7.4 kmh 29.70 in1005.8 mb - 0.00 in0.0 mm 0.03 in0.8 mm
06:25 AM 52.0°F11.1°C 50.0°F10.0°C 93% 2.3 mph SSE3.7 kmh SSE 3.5 mph5.6 kmh 29.71 in1006.1 mb - 0.00 in0.0 mm 0.03 in0.8 mm
06:20 AM 52.1°F11.2°C 50.1°F10.1°C 93% 3.5 mph S5.6 kmh S 5.8 mph9.3 kmh 29.71 in1006.1 mb - 0.00 in0.0 mm 0.03 in0.8 mm
06:15 AM 52.1°F11.2°C 50.2°F10.1°C 93% 3.5 mph S5.6 kmh S 4.6 mph7.4 kmh 29.71 in1006.1 mb - 0.00 in0.0 mm 0.03 in0.8 mm
06:10 AM 52.2°F11.2°C 50.2°F10.1°C 93% 2.3 mph S3.7 kmh S 5.8 mph9.3 kmh 29.71 in1006.1 mb - 0.00 in0.0 mm 0.03 in0.8 mm
06:00 AM 52.1°F11.2°C 50.2°F10.1°C 93% 2.3 mph S3.7 kmh S 5.8 mph9.3 kmh 29.71 in1006.1 mb - 0.00 in0.0 mm 0.03 in0.8 mm
05:55 AM 52.2°F11.2°C 50.2°F10.1°C 93% 3.5 mph S5.6 kmh S 4.6 mph7.4 kmh 29.71 in1006.1 mb - 0.00 in0.0 mm 0.03 in0.8 mm
05:50 AM 52.2°F11.2°C 50.2°F10.1°C 93% 3.5 mph SW5.6 kmh SW 3.5 mph5.6 kmh 29.72 in1006.4 mb - 0.00 in0.0 mm 0.03 in0.8 mm
05:45 AM 52.2°F11.2°C 50.2°F10.1°C 93% 4.6 mph SSW7.4 kmh SSW 5.8 mph9.3 kmh 29.72 in1006.4 mb - 0.00 in0.0 mm 0.03 in0.8 mm
05:40 AM 52.2°F11.2°C 50.2°F10.1°C 93% 3.5 mph S5.6 kmh S 3.5 mph5.6 kmh 29.72 in1006.4 mb - 0.00 in0.0 mm 0.03 in0.8 mm
05:35 AM 52.2°F11.2°C 50.2°F10.1°C 93% 2.3 mph SSW3.7 kmh SSW 3.5 mph5.6 kmh 29.72 in1006.4 mb - 0.00 in0.0 mm 0.03 in0.8 mm
05:30 AM 52.2°F11.2°C 50.3°F10.2°C 93% 1.2 mph SSE1.9 kmh SSE 2.3 mph3.7 kmh 29.72 in1006.4 mb - 0.00 in0.0 mm 0.03 in0.8 mm
05:25 AM 52.3°F11.3°C 50.3°F10.2°C 93% 3.5 mph SW5.6 kmh SW 5.8 mph9.3 kmh 29.73 in1006.8 mb - 0.00 in0.0 mm 0.03 in0.8 mm
05:20 AM 52.3°F11.3°C 50.3°F10.2°C 93% 2.3 mph SW3.7 kmh SW 3.5 mph5.6 kmh 29.73 in1006.8 mb - 0.00 in0.0 mm 0.03 in0.8 mm
05:15 AM 52.3°F11.3°C 50.3°F10.2°C 93% 3.5 mph SW5.6 kmh SW 4.6 mph7.4 kmh 29.73 in1006.8 mb - 0.00 in0.0 mm 0.03 in0.8 mm
05:10 AM 52.3°F11.3°C 50.3°F10.2°C 93% 3.5 mph SW5.6 kmh SW 3.5 mph5.6 kmh 29.73 in1006.8 mb - 0.00 in0.0 mm 0.03 in0.8 mm
05:00 AM 52.3°F11.3°C 50.6°F10.3°C 94% 3.5 mph SW5.6 kmh SW 4.6 mph7.4 kmh 29.73 in1006.8 mb - 0.00 in0.0 mm 0.03 in0.8 mm
04:55 AM 52.4°F11.3°C 50.7°F10.4°C 94% 2.3 mph SSW3.7 kmh SSW 3.5 mph5.6 kmh 29.73 in1006.8 mb - 0.00 in0.0 mm 0.03 in0.8 mm
04:50 AM 52.4°F11.3°C 50.7°F10.4°C 94% 2.3 mph S3.7 kmh S 3.5 mph5.6 kmh 29.73 in1006.8 mb - 0.00 in0.0 mm 0.03 in0.8 mm
04:45 AM 52.4°F11.3°C 50.7°F10.4°C 94% 1.2 mph SSW1.9 kmh SSW 2.3 mph3.7 kmh 29.73 in1006.8 mb - 0.00 in0.0 mm 0.03 in0.8 mm
04:40 AM 52.4°F11.3°C 50.7°F10.4°C 94% 1.2 mph SSE1.9 kmh SSE 3.5 mph5.6 kmh 29.73 in1006.8 mb - 0.00 in0.0 mm 0.03 in0.8 mm
04:35 AM 52.4°F11.3°C 50.7°F10.4°C 94% 3.5 mph S5.6 kmh S 4.6 mph7.4 kmh 29.73 in1006.8 mb - 0.00 in0.0 mm 0.03 in0.8 mm
04:30 AM 52.4°F11.3°C 50.7°F10.4°C 94% 4.6 mph SSW7.4 kmh SSW 5.8 mph9.3 kmh 29.73 in1006.8 mb - 0.00 in0.0 mm 0.03 in0.8 mm
04:25 AM 52.4°F11.3°C 50.7°F10.4°C 94% 3.5 mph SSW5.6 kmh SSW 5.8 mph9.3 kmh 29.73 in1006.8 mb - 0.00 in0.0 mm 0.03 in0.8 mm
04:20 AM 52.5°F11.4°C 50.8°F10.4°C 94% 1.2 mph S1.9 kmh S 2.3 mph3.7 kmh 29.73 in1006.8 mb - 0.00 in0.0 mm 0.03 in0.8 mm
04:15 AM 52.4°F11.3°C 50.7°F10.4°C 94% 1.2 mph S1.9 kmh S 2.3 mph3.7 kmh 29.73 in1006.8 mb - 0.00 in0.0 mm 0.03 in0.8 mm
04:10 AM 52.4°F11.3°C 50.7°F10.4°C 94% 2.3 mph SW3.7 kmh SW 3.5 mph5.6 kmh 29.73 in1006.8 mb - 0.00 in0.0 mm 0.03 in0.8 mm
04:00 AM 52.4°F11.3°C 50.7°F10.4°C 94% 1.2 mph WSW1.9 kmh WSW 2.3 mph3.7 kmh 29.74 in1007.1 mb - 0.00 in0.0 mm 0.03 in0.8 mm
03:55 AM 52.4°F11.3°C 50.7°F10.4°C 94% 1.2 mph WSW1.9 kmh WSW 1.2 mph1.9 kmh 29.74 in1007.1 mb - 0.00 in0.0 mm 0.03 in0.8 mm
03:50 AM 52.5°F11.4°C 50.8°F10.4°C 94% 2.3 mph WSW3.7 kmh WSW 3.5 mph5.6 kmh 29.74 in1007.1 mb - 0.00 in0.0 mm 0.03 in0.8 mm
03:45 AM 52.4°F11.3°C 50.4°F10.2°C 93% 2.3 mph SW3.7 kmh SW 2.3 mph3.7 kmh 29.74 in1007.1 mb - 0.00 in0.0 mm 0.03 in0.8 mm
03:40 AM 52.4°F11.3°C 50.4°F10.2°C 93% 1.2 mph SE1.9 kmh SE 2.3 mph3.7 kmh 29.74 in1007.1 mb - 0.00 in0.0 mm 0.03 in0.8 mm
03:35 AM 52.4°F11.3°C 50.4°F10.2°C 93% Calm Calm -- 29.74 in1007.1 mb - 0.00 in0.0 mm 0.03 in0.8 mm
03:30 AM 52.4°F11.3°C 50.4°F10.2°C 93% Calm Calm -- 29.73 in1006.8 mb - 0.00 in0.0 mm 0.03 in0.8 mm
03:25 AM 52.3°F11.3°C 50.4°F10.2°C 93% 1.2 mph SE1.9 kmh SE 2.3 mph3.7 kmh 29.73 in1006.8 mb - 0.01 in0.3 mm 0.03 in0.8 mm
03:20 AM 52.3°F11.3°C 50.3°F10.2°C 93% Calm Calm 1.2 mph1.9 kmh 29.73 in1006.8 mb - 0.01 in0.3 mm 0.03 in0.8 mm
03:15 AM 52.3°F11.3°C 50.3°F10.2°C 93% 1.2 mph SE1.9 kmh SE 1.2 mph1.9 kmh 29.73 in1006.8 mb - 0.01 in0.3 mm 0.03 in0.8 mm
03:10 AM 52.3°F11.3°C 50.3°F10.2°C 93% 1.2 mph SE1.9 kmh SE 2.3 mph3.7 kmh 29.74 in1007.1 mb - 0.01 in0.3 mm 0.03 in0.8 mm
03:00 AM 52.3°F11.3°C 50.3°F10.2°C 93% 1.2 mph SE1.9 kmh SE 2.3 mph3.7 kmh 29.74 in1007.1 mb - 0.01 in0.3 mm 0.03 in0.8 mm
02:55 AM 52.3°F11.3°C 50.3°F10.2°C 93% 1.2 mph SE1.9 kmh SE 2.3 mph3.7 kmh 29.74 in1007.1 mb - 0.01 in0.3 mm 0.03 in0.8 mm
02:50 AM 52.2°F11.2°C 50.3°F10.2°C 93% 1.2 mph SE1.9 kmh SE 2.3 mph3.7 kmh 29.75 in1007.5 mb - 0.01 in0.3 mm 0.03 in0.8 mm
02:45 AM 52.3°F11.3°C 50.3°F10.2°C 93% 2.3 mph SE3.7 kmh SE 3.5 mph5.6 kmh 29.75 in1007.5 mb - 0.01 in0.3 mm 0.03 in0.8 mm
02:40 AM 52.2°F11.2°C 50.2°F10.1°C 93% 1.2 mph SE1.9 kmh SE 2.3 mph3.7 kmh 29.75 in1007.5 mb - 0.01 in0.3 mm 0.03 in0.8 mm
02:35 AM 52.2°F11.2°C 50.2°F10.1°C 93% 1.2 mph SE1.9 kmh SE 2.3 mph3.7 kmh 29.76 in1007.8 mb - 0.02 in0.5 mm 0.03 in0.8 mm
02:30 AM 52.1°F11.2°C 49.9°F9.9°C 92% 2.3 mph S3.7 kmh S 3.5 mph5.6 kmh 29.76 in1007.8 mb - 0.02 in0.5 mm 0.03 in0.8 mm
02:25 AM 52.2°F11.2°C 49.9°F9.9°C 92% 2.3 mph SE3.7 kmh SE 3.5 mph5.6 kmh 29.76 in1007.8 mb - 0.01 in0.3 mm 0.02 in0.5 mm
02:20 AM 52.2°F11.2°C 49.9°F9.9°C 92% 2.3 mph SSE3.7 kmh SSE 3.5 mph5.6 kmh 29.76 in1007.8 mb - 0.02 in0.5 mm 0.02 in0.5 mm
02:15 AM 52.3°F11.3°C 50.0°F10.0°C 92% 2.3 mph SE3.7 kmh SE 3.5 mph5.6 kmh 29.76 in1007.8 mb - 0.02 in0.5 mm 0.02 in0.5 mm
02:10 AM 52.3°F11.3°C 50.0°F10.0°C 92% 2.3 mph SE3.7 kmh SE 3.5 mph5.6 kmh 29.76 in1007.8 mb - 0.02 in0.5 mm 0.02 in0.5 mm
02:00 AM 52.2°F11.2°C 49.9°F9.9°C 92% 3.5 mph SE5.6 kmh SE 5.8 mph9.3 kmh 29.76 in1007.8 mb - 0.02 in0.5 mm 0.02 in0.5 mm
01:55 AM 52.1°F11.2°C 49.8°F9.9°C 92% 3.5 mph SE5.6 kmh SE 5.8 mph9.3 kmh 29.77 in1008.1 mb - 0.02 in0.5 mm 0.02 in0.5 mm
01:50 AM 52.0°F11.1°C 49.7°F9.8°C 92% 3.5 mph SE5.6 kmh SE 4.6 mph7.4 kmh 29.77 in1008.1 mb - 0.02 in0.5 mm 0.02 in0.5 mm
01:45 AM 51.8°F11.0°C 49.5°F9.7°C 92% 3.5 mph SE5.6 kmh SE 4.6 mph7.4 kmh 29.77 in1008.1 mb - 0.02 in0.5 mm 0.02 in0.5 mm
01:40 AM 51.6°F10.9°C 49.4°F9.7°C 92% 4.6 mph SE7.4 kmh SE 6.9 mph11.1 kmh 29.77 in1008.1 mb - 0.02 in0.5 mm 0.02 in0.5 mm
01:35 AM 51.6°F10.9°C 49.4°F9.7°C 92% 3.5 mph SE5.6 kmh SE 3.5 mph5.6 kmh 29.77 in1008.1 mb - 0.02 in0.5 mm 0.02 in0.5 mm
01:30 AM 51.7°F10.9°C 49.5°F9.7°C 92% 3.5 mph SE5.6 kmh SE 5.8 mph9.3 kmh 29.78 in1008.5 mb - 0.02 in0.5 mm 0.02 in0.5 mm
01:25 AM 51.8°F11.0°C 49.8°F9.9°C 93% 3.5 mph SE5.6 kmh SE 3.5 mph5.6 kmh 29.78 in1008.5 mb - 0.02 in0.5 mm 0.02 in0.5 mm
01:20 AM 51.7°F10.9°C 49.7°F9.8°C 93% 2.3 mph SE3.7 kmh SE 3.5 mph5.6 kmh 29.78 in1008.5 mb - 0.01 in0.3 mm 0.01 in0.3 mm
01:15 AM 51.7°F10.9°C 49.7°F9.8°C 93% 3.5 mph SE5.6 kmh SE 3.5 mph5.6 kmh 29.78 in1008.5 mb - 0.01 in0.3 mm 0.01 in0.3 mm
01:10 AM 51.7°F10.9°C 49.7°F9.8°C 93% 3.5 mph SE5.6 kmh SE 4.6 mph7.4 kmh 29.78 in1008.5 mb - 0.01 in0.3 mm 0.01 in0.3 mm
01:00 AM 51.6°F10.9°C 49.9°F9.9°C 94% 3.5 mph SE5.6 kmh SE 6.9 mph11.1 kmh 29.78 in1008.5 mb - 0.00 in0.0 mm 0.00 in0.0 mm
12:55 AM 51.7°F10.9°C 50.0°F10.0°C 94% 2.3 mph SE3.7 kmh SE 3.5 mph5.6 kmh 29.78 in1008.5 mb - 0.00 in0.0 mm 0.00 in0.0 mm
12:50 AM 51.7°F10.9°C 50.0°F10.0°C 94% 2.3 mph SE3.7 kmh SE 3.5 mph5.6 kmh 29.78 in1008.5 mb - 0.00 in0.0 mm 0.00 in0.0 mm
12:45 AM 51.6°F10.9°C 49.9°F9.9°C 94% 2.3 mph SE3.7 kmh SE 3.5 mph5.6 kmh 29.79 in1008.8 mb - 0.00 in0.0 mm 0.00 in0.0 mm
12:40 AM 51.5°F10.8°C 49.8°F9.9°C 94% 1.2 mph SE1.9 kmh SE 3.5 mph5.6 kmh 29.78 in1008.5 mb - 0.00 in0.0 mm 0.00 in0.0 mm
12:35 AM 51.4°F10.8°C 49.7°F9.8°C 94% 3.5 mph SE5.6 kmh SE 3.5 mph5.6 kmh 29.78 in1008.5 mb - 0.00 in0.0 mm 0.00 in0.0 mm
12:30 AM 51.2°F10.7°C 49.5°F9.7°C 94% 2.3 mph SE3.7 kmh SE 3.5 mph5.6 kmh 29.78 in1008.5 mb - 0.00 in0.0 mm 0.00 in0.0 mm
12:25 AM 50.9°F10.5°C 49.3°F9.6°C 94% 2.3 mph SE3.7 kmh SE 3.5 mph5.6 kmh 29.79 in1008.8 mb - 0.00 in0.0 mm 0.00 in0.0 mm
12:20 AM 50.6°F10.3°C 48.9°F9.4°C 94% 2.3 mph SE3.7 kmh SE 3.5 mph5.6 kmh 29.79 in1008.8 mb - 0.00 in0.0 mm 0.00 in0.0 mm
12:15 AM 50.3°F10.2°C 48.6°F9.2°C 94% 1.2 mph SE1.9 kmh SE 2.3 mph3.7 kmh 29.79 in1008.8 mb - 0.00 in0.0 mm 0.00 in0.0 mm
12:10 AM 50.4°F10.2°C 48.7°F9.3°C 94% 2.3 mph SE3.7 kmh SE 3.5 mph5.6 kmh 29.79 in1008.8 mb - 0.00 in0.0 mm 0.00 in0.0 mm
12:00 AM 50.3°F10.2°C 48.6°F9.2°C 94% 1.2 mph SE1.9 kmh SE 3.5 mph5.6 kmh 29.80 in1009.1 mb - 0.00 in0.0 mm 0.00 in0.0 mm